createdAt,value
2023-03-04T00:02:12.867Z,35.80
2023-03-04T00:04:43.057Z,36.74
2023-03-04T00:07:16.764Z,37.51
2023-03-04T00:09:46.793Z,38.90
2023-03-04T00:12:17.253Z,40.34
2023-03-04T00:14:47.373Z,40.03
2023-03-04T00:17:19.897Z,40.70
2023-03-04T00:19:49.862Z,40.30
2023-03-04T00:22:19.727Z,41.66
2023-03-04T00:24:49.536Z,41.66
2023-03-04T00:27:19.407Z,42.55
2023-03-04T00:29:49.326Z,43.03
2023-03-04T00:32:21.923Z,43.91
2023-03-04T00:34:51.869Z,43.56
2023-03-04T00:37:21.722Z,43.74
2023-03-04T00:39:53.420Z,45.36
2023-03-04T00:42:23.257Z,45.20
2023-03-04T00:44:53.113Z,45.69
2023-03-04T00:47:25.669Z,45.42
2023-03-04T00:49:56.527Z,44.93
2023-03-04T00:52:26.563Z,45.21
2023-03-04T00:54:56.441Z,46.06
2023-03-04T00:57:26.321Z,46.32
2023-03-04T00:59:56.306Z,45.94
2023-03-04T01:02:30.021Z,45.77
2023-03-04T01:04:59.922Z,46.18
2023-03-04T01:07:29.850Z,46.44
2023-03-04T01:09:59.835Z,46.46
2023-03-04T01:12:29.949Z,45.68
2023-03-04T01:14:59.943Z,46.75
2023-03-04T01:17:32.559Z,47.35
2023-03-04T01:20:02.542Z,48.26
2023-03-04T01:22:32.506Z,47.83
2023-03-04T01:25:02.424Z,47.79
2023-03-04T01:27:41.248Z,48.48
2023-03-04T01:30:13.052Z,50.08
2023-03-04T01:32:45.610Z,49.33
2023-03-04T01:35:15.540Z,48.39
2023-03-04T01:37:45.606Z,49.10
2023-03-04T01:40:17.051Z,50.01
2023-03-04T01:42:48.399Z,50.17
2023-03-04T01:45:21.662Z,49.85
2023-03-04T01:47:55.343Z,50.04
2023-03-04T01:50:33.630Z,50.21
2023-03-04T01:53:04.275Z,51.96
2023-03-04T01:55:34.776Z,51.66
2023-03-04T01:58:05.350Z,53.22
2023-03-04T02:00:37.609Z,51.85
2023-03-04T02:03:15.350Z,52.79
2023-03-04T02:05:48.970Z,51.97
2023-03-04T02:08:23.547Z,51.24
2023-03-04T02:10:55.112Z,53.57
2023-03-04T02:13:25.871Z,53.10
2023-03-04T02:15:55.751Z,53.21
2023-03-04T02:18:28.377Z,52.52
2023-03-04T02:21:08.152Z,53.31
2023-03-04T02:23:49.096Z,53.92
2023-03-04T02:26:23.666Z,54.39
2023-03-04T02:28:57.987Z,52.66
2023-03-04T02:31:33.094Z,55.47
2023-03-04T02:34:07.237Z,53.07
2023-03-04T02:36:39.195Z,54.54
2023-03-04T02:39:15.440Z,54.37
2023-03-04T02:41:48.138Z,55.10
2023-03-04T02:44:22.127Z,54.98
2023-03-04T02:46:53.792Z,54.86
2023-03-04T02:49:26.259Z,55.36
2023-03-04T02:52:04.253Z,55.34
2023-03-04T02:54:35.546Z,56.22
2023-03-04T02:57:10.946Z,54.41
2023-03-04T02:59:44.680Z,55.53
2023-03-04T03:02:19.538Z,56.38
2023-03-04T03:04:49.452Z,56.67
2023-03-04T03:07:21.887Z,55.81
2023-03-04T03:09:52.336Z,55.81
2023-03-04T03:12:24.910Z,55.83
2023-03-04T03:14:54.853Z,55.52
2023-03-04T03:17:26.285Z,55.13
2023-03-04T03:19:56.202Z,55.09
2023-03-04T03:22:26.144Z,55.57
2023-03-04T03:24:56.951Z,54.92
2023-03-04T03:27:31.536Z,54.41
2023-03-04T03:30:01.507Z,54.18
2023-03-04T03:32:31.497Z,55.02
2023-03-04T03:35:01.450Z,53.83
2023-03-04T03:37:31.810Z,54.00
2023-03-04T03:40:01.649Z,55.94
2023-03-04T03:42:34.072Z,54.92
2023-03-04T03:45:04.050Z,54.70
2023-03-04T03:47:33.898Z,54.12
2023-03-04T03:50:03.772Z,55.80
2023-03-04T03:52:33.605Z,55.02
2023-03-04T03:55:04.165Z,55.50
2023-03-04T03:57:36.588Z,56.49
2023-03-04T04:00:07.723Z,56.42
2023-03-04T04:02:42.431Z,56.47
2023-03-04T04:05:14.708Z,56.04
2023-03-04T04:07:44.850Z,57.03
2023-03-04T04:10:15.217Z,55.33
2023-03-04T04:12:47.629Z,55.73
2023-03-04T04:15:17.518Z,56.00
2023-03-04T04:17:50.286Z,55.86
2023-03-04T04:20:24.958Z,55.63
2023-03-04T04:22:55.943Z,54.66
2023-03-04T04:25:26.027Z,56.63
2023-03-04T04:27:58.608Z,55.38
2023-03-04T04:30:28.877Z,54.73
2023-03-04T04:33:01.660Z,54.15
2023-03-04T04:35:31.703Z,54.39
2023-03-04T04:38:01.555Z,54.67
2023-03-04T04:40:31.435Z,54.68
2023-03-04T04:43:03.922Z,52.80
2023-03-04T04:45:33.857Z,54.18
2023-03-04T04:48:03.759Z,53.23
2023-03-04T04:50:33.611Z,53.03
2023-03-04T04:53:03.591Z,53.47
2023-03-04T04:55:33.463Z,53.58
2023-03-04T04:58:08.007Z,53.02
2023-03-04T05:00:37.787Z,53.85
2023-03-04T05:03:07.695Z,53.40
2023-03-04T05:05:37.532Z,55.37
2023-03-04T05:08:08.086Z,52.92
2023-03-04T05:10:38.231Z,52.92
2023-03-04T05:13:10.724Z,54.79
2023-03-04T05:15:41.046Z,54.43
2023-03-04T05:18:10.956Z,53.82
2023-03-04T05:20:40.964Z,55.19
2023-03-04T05:23:10.839Z,55.28
2023-03-04T05:25:40.723Z,55.00
2023-03-04T05:28:13.787Z,54.42
2023-03-04T05:30:45.593Z,55.31
2023-03-04T05:33:17.405Z,55.90
2023-03-04T05:35:50.606Z,54.61
2023-03-04T05:38:22.565Z,55.16
2023-03-04T05:40:52.635Z,56.78
2023-03-04T05:43:25.201Z,56.34
2023-03-04T05:45:55.091Z,54.96
2023-03-04T05:48:25.350Z,57.69
2023-03-04T05:50:59.652Z,56.19
2023-03-04T05:53:30.509Z,54.73
2023-03-04T05:56:00.588Z,55.31
2023-03-04T05:58:33.047Z,57.06
2023-03-04T06:01:04.023Z,57.15
2023-03-04T06:03:34.220Z,55.97
2023-03-04T06:06:04.220Z,57.38
2023-03-04T06:08:34.294Z,56.19
2023-03-04T06:11:05.656Z,55.36
2023-03-04T06:13:38.307Z,55.77
2023-03-04T06:16:09.101Z,55.98
2023-03-04T06:18:39.033Z,54.80
2023-03-04T06:21:09.355Z,54.57
2023-03-04T06:23:39.221Z,53.07
2023-03-04T06:26:15.348Z,53.72
2023-03-04T06:28:48.270Z,53.55
2023-03-04T06:31:18.134Z,53.92
2023-03-04T06:33:48.049Z,55.82
2023-03-04T06:36:17.997Z,54.85
2023-03-04T06:38:48.760Z,55.32
2023-03-04T06:41:18.701Z,54.96
2023-03-04T06:43:51.228Z,53.98
2023-03-04T06:46:21.129Z,55.17
2023-03-04T06:48:51.178Z,54.57
2023-03-04T06:51:22.490Z,53.19
2023-03-04T06:53:52.451Z,53.65
2023-03-04T06:56:22.362Z,53.74
2023-03-04T06:58:54.951Z,55.14
2023-03-04T07:01:27.200Z,55.41
2023-03-04T07:03:59.113Z,55.36
2023-03-04T07:06:31.245Z,55.15
2023-03-04T07:09:01.830Z,55.45
2023-03-04T07:11:31.849Z,53.92
2023-03-04T07:14:04.397Z,52.90
2023-03-04T07:16:35.530Z,52.08
2023-03-04T07:19:05.589Z,52.71
2023-03-04T07:21:35.778Z,53.36
2023-03-04T07:24:05.642Z,52.43
2023-03-04T07:26:35.787Z,51.50
2023-03-04T07:29:08.661Z,52.49
2023-03-04T07:31:39.117Z,51.31
2023-03-04T07:34:12.857Z,51.69
2023-03-04T07:36:43.170Z,50.45
2023-03-04T07:39:14.862Z,50.19
2023-03-04T07:41:45.033Z,50.18
2023-03-04T07:44:17.695Z,49.50
2023-03-04T07:46:47.582Z,49.42
2023-03-04T07:49:18.009Z,49.23
2023-03-04T07:51:47.852Z,47.93
2023-03-04T07:54:20.160Z,48.81
2023-03-04T07:56:50.107Z,48.54
2023-03-04T07:59:22.550Z,46.61
2023-03-04T08:01:52.449Z,43.50
2023-03-04T08:04:22.335Z,42.54
2023-03-04T08:06:52.302Z,41.63
2023-03-04T08:09:22.235Z,41.43
2023-03-04T08:11:52.040Z,40.58
2023-03-04T08:14:24.521Z,41.58
2023-03-04T08:16:54.451Z,40.72
2023-03-04T08:19:26.001Z,41.06
2023-03-04T08:21:56.152Z,41.42
2023-03-04T08:24:26.151Z,41.66
2023-03-04T08:26:56.401Z,40.56
2023-03-04T08:29:29.162Z,41.23
2023-03-04T08:31:59.860Z,40.55
2023-03-04T08:34:31.490Z,38.78
2023-03-04T08:37:01.397Z,39.29
2023-03-04T08:39:33.404Z,38.61
2023-03-04T08:42:03.277Z,39.60
2023-03-04T08:44:35.792Z,39.24
2023-03-04T08:47:10.327Z,40.64
2023-03-04T08:49:40.197Z,41.92
2023-03-04T08:52:10.437Z,40.81
2023-03-04T08:54:40.259Z,41.54
2023-03-04T08:57:10.121Z,41.00
2023-03-04T08:59:42.591Z,41.32
2023-03-04T09:02:12.589Z,41.26
2023-03-04T09:04:42.574Z,42.26
2023-03-04T09:07:14.174Z,42.33
2023-03-04T09:09:44.478Z,40.98
2023-03-04T09:12:14.383Z,44.03
2023-03-04T09:14:51.245Z,44.88
2023-03-04T09:17:25.458Z,41.65
2023-03-04T09:19:56.744Z,43.77
2023-03-04T09:22:26.902Z,43.31
2023-03-04T09:24:56.816Z,42.32
2023-03-04T09:27:27.088Z,43.19
2023-03-04T09:29:59.695Z,42.88
2023-03-04T09:32:29.652Z,45.90
2023-03-04T09:34:59.571Z,45.05
2023-03-04T09:37:29.412Z,45.71
2023-03-04T09:39:59.281Z,45.45
2023-03-04T09:42:36.345Z,45.73
2023-03-04T09:45:11.722Z,46.88
2023-03-04T09:47:42.644Z,47.02
2023-03-04T09:50:15.429Z,48.24
2023-03-04T09:53:06.405Z,50.11
2023-03-04T09:55:40.585Z,52.75
2023-03-04T09:58:27.920Z,53.63
2023-03-04T10:01:10.460Z,53.83
2023-03-04T10:03:48.450Z,49.87
2023-03-04T10:06:22.379Z,51.50
2023-03-04T10:08:59.595Z,51.61
2023-03-04T10:11:38.024Z,50.24
2023-03-04T10:14:33.122Z,50.02
2023-03-04T10:17:15.761Z,47.58
2023-03-04T10:19:58.046Z,49.05
2023-03-04T10:22:37.566Z,48.44
2023-03-04T10:25:22.907Z,48.96
2023-03-04T10:27:54.933Z,48.60
2023-03-04T10:30:41.332Z,49.93
2023-03-04T10:33:21.175Z,48.87
2023-03-04T10:35:57.439Z,48.68
2023-03-04T10:38:27.987Z,48.00
2023-03-04T10:40:58.016Z,49.57
2023-03-04T10:43:28.587Z,48.55
2023-03-04T10:46:01.492Z,42.36
2023-03-04T10:48:35.560Z,43.88
2023-03-04T10:51:19.771Z,45.28
2023-03-04T10:53:53.108Z,45.73
2023-03-04T10:56:36.813Z,45.14
2023-03-04T10:59:46.245Z,44.89
2023-03-04T11:02:29.609Z,46.60
2023-03-04T11:05:19.429Z,45.19
2023-03-04T11:07:56.229Z,43.53
2023-03-04T11:10:41.741Z,42.59
2023-03-04T11:13:19.596Z,42.73
2023-03-04T11:15:57.845Z,42.38
2023-03-04T11:18:37.134Z,44.70
2023-03-04T11:21:16.704Z,45.47
2023-03-04T11:23:52.639Z,44.77
2023-03-04T11:26:29.165Z,44.89
2023-03-04T11:29:04.861Z,41.77
2023-03-04T11:31:41.121Z,41.86
2023-03-04T11:34:20.539Z,42.67
2023-03-04T11:37:00.341Z,41.96
2023-03-04T11:39:39.566Z,42.47
2023-03-04T11:42:24.095Z,43.36
2023-03-04T11:44:55.232Z,43.16
2023-03-04T11:47:51.837Z,43.21
2023-03-04T11:50:34.364Z,41.99
2023-03-04T11:53:36.179Z,42.04
2023-03-04T11:59:30.074Z,40.47
2023-03-04T12:02:17.262Z,40.91
2023-03-04T12:05:14.353Z,41.45
2023-03-04T12:08:17.274Z,42.79
2023-03-04T12:11:02.244Z,41.34
2023-03-04T12:13:59.032Z,41.29
2023-03-04T12:17:00.179Z,41.32
2023-03-04T12:19:45.300Z,39.48
2023-03-04T12:22:33.095Z,41.02
2023-03-04T12:25:38.148Z,40.12
2023-03-04T12:28:27.847Z,39.83
2023-03-04T12:31:29.265Z,40.89
2023-03-04T12:34:24.876Z,40.34
2023-03-04T12:37:08.039Z,39.21
2023-03-04T12:39:44.120Z,38.13
2023-03-04T12:42:32.567Z,38.94
2023-03-04T12:45:20.690Z,39.04
2023-03-04T12:48:05.051Z,39.36
2023-03-04T12:50:44.182Z,38.63
2023-03-04T12:53:30.163Z,40.42
2023-03-04T12:56:01.912Z,41.92
2023-03-04T12:58:35.193Z,42.94
2023-03-04T13:01:16.983Z,42.54
2023-03-04T13:04:01.907Z,43.34
2023-03-04T13:06:48.840Z,44.27
2023-03-04T13:09:28.318Z,43.94
2023-03-04T13:12:07.508Z,44.29
2023-03-04T13:14:38.087Z,43.07
2023-03-04T13:17:44.905Z,41.82
2023-03-04T13:20:23.078Z,40.71
2023-03-04T13:22:59.514Z,38.35
2023-03-04T13:25:45.347Z,41.94
2023-03-04T13:28:21.850Z,40.69
2023-03-04T13:31:27.150Z,39.08
2023-03-04T13:34:05.526Z,44.24
2023-03-04T13:36:57.597Z,45.48
2023-03-04T13:39:38.968Z,39.48
2023-03-04T13:42:38.705Z,33.70
2023-03-04T13:45:36.718Z,32.24
2023-03-04T13:48:26.053Z,31.18
2023-03-04T13:50:59.219Z,29.46
2023-03-04T13:53:47.380Z,29.60
2023-03-04T13:56:36.704Z,28.83
2023-03-04T13:59:18.024Z,28.91
2023-03-04T14:02:00.090Z,27.81
2023-03-04T14:04:33.545Z,27.31
2023-03-04T14:07:22.302Z,26.94
2023-03-04T14:10:04.906Z,27.43
2023-03-04T14:12:40.306Z,27.28
2023-03-04T14:15:26.587Z,27.49
2023-03-04T14:17:59.528Z,26.92
2023-03-04T14:20:33.336Z,27.02
2023-03-04T14:23:08.396Z,27.05
2023-03-04T14:25:39.146Z,27.24
2023-03-04T14:28:14.271Z,26.52
2023-03-04T14:30:45.653Z,26.53
2023-03-04T14:33:22.255Z,25.54
2023-03-04T14:35:56.563Z,26.66
2023-03-04T14:38:32.568Z,25.20
2023-03-04T14:41:10.183Z,26.25
2023-03-04T14:43:48.201Z,25.14
2023-03-04T14:46:22.283Z,23.77
2023-03-04T14:48:55.067Z,22.96
2023-03-04T14:51:41.968Z,22.25
2023-03-04T14:54:33.807Z,23.70
2023-03-04T14:57:20.925Z,23.38
2023-03-04T14:59:51.062Z,23.17
2023-03-04T15:02:31.471Z,22.36
2023-03-04T15:05:16.856Z,23.28
2023-03-04T15:07:54.746Z,24.32
2023-03-04T15:10:31.075Z,23.84
2023-03-04T15:13:04.073Z,23.67
2023-03-04T15:15:43.834Z,23.83
2023-03-04T15:18:28.136Z,25.14
2023-03-04T15:21:01.184Z,23.34
2023-03-04T15:23:33.167Z,22.69
2023-03-04T15:26:08.139Z,23.16
2023-03-04T15:28:41.897Z,23.41
2023-03-04T15:31:19.826Z,23.26
2023-03-04T15:33:50.550Z,24.04
2023-03-04T15:36:24.120Z,24.09
2023-03-04T15:38:56.550Z,22.51
2023-03-04T15:41:30.008Z,21.73
2023-03-04T15:43:59.948Z,22.02
2023-03-04T15:46:29.951Z,22.37
2023-03-04T15:49:00.069Z,22.39
2023-03-04T15:51:30.241Z,22.49
2023-03-04T15:54:03.677Z,21.88
2023-03-04T15:56:37.501Z,21.78
2023-03-04T15:59:13.785Z,21.27
2023-03-04T16:01:43.985Z,23.39
2023-03-04T16:04:17.345Z,27.13
2023-03-04T16:06:49.654Z,25.89
2023-03-04T16:09:23.030Z,24.23
2023-03-04T16:11:57.328Z,23.25
2023-03-04T16:14:27.334Z,21.80
2023-03-04T16:16:57.282Z,22.99
2023-03-04T16:19:27.466Z,23.03
2023-03-04T16:21:57.654Z,22.66
2023-03-04T16:24:27.709Z,21.95
2023-03-04T16:27:00.185Z,22.16
2023-03-04T16:29:30.313Z,21.93
2023-03-04T16:32:00.244Z,21.62
2023-03-04T16:34:30.137Z,21.65
2023-03-04T16:37:00.254Z,21.45
2023-03-04T16:39:30.289Z,21.40
2023-03-04T16:42:03.133Z,22.41
2023-03-04T16:44:33.082Z,22.79
2023-03-04T16:47:05.399Z,24.37
2023-03-04T16:49:35.321Z,25.73
2023-03-04T16:52:05.661Z,26.02
2023-03-04T16:54:39.000Z,25.37
2023-03-04T16:57:14.105Z,25.49
2023-03-04T16:59:45.918Z,26.08
2023-03-04T17:02:21.222Z,25.42
2023-03-04T17:04:53.218Z,25.79
2023-03-04T17:07:23.140Z,25.45
2023-03-04T17:09:53.292Z,24.89
2023-03-04T17:12:25.868Z,30.24
2023-03-04T17:14:55.798Z,27.66
2023-03-04T17:17:25.792Z,27.11
2023-03-04T17:19:55.753Z,28.09
2023-03-04T17:22:26.392Z,29.31
2023-03-04T17:24:56.354Z,28.22
2023-03-04T17:27:29.052Z,32.19
2023-03-04T17:29:59.123Z,30.89
2023-03-04T17:32:31.589Z,31.80
2023-03-04T17:35:03.197Z,29.07
2023-03-04T17:37:33.095Z,28.78
2023-03-04T17:40:02.979Z,31.55
2023-03-04T17:42:35.754Z,34.28
2023-03-04T17:45:06.124Z,32.49
2023-03-04T17:47:36.578Z,32.85
2023-03-04T17:50:07.446Z,33.29
2023-03-04T17:52:37.379Z,33.16
2023-03-04T17:55:08.014Z,35.22
2023-03-04T17:57:41.529Z,34.57
2023-03-04T18:00:14.243Z,33.03
2023-03-04T18:02:44.158Z,35.43
2023-03-04T18:05:14.201Z,40.20
2023-03-04T18:07:44.193Z,35.58
2023-03-04T18:10:14.807Z,44.68
2023-03-04T18:12:47.459Z,52.95
2023-03-04T18:15:17.547Z,35.53
2023-03-04T18:17:47.660Z,34.31
2023-03-04T18:20:17.702Z,32.95
2023-03-04T18:22:48.057Z,33.02
2023-03-04T18:25:17.966Z,33.37
2023-03-04T18:27:50.625Z,33.52
2023-03-04T18:30:27.194Z,34.10
2023-03-04T18:32:59.724Z,32.55
2023-03-04T18:35:29.788Z,33.08
2023-03-04T18:38:00.098Z,33.60
2023-03-04T18:40:31.671Z,36.10
2023-03-04T18:43:04.758Z,36.18
2023-03-04T18:45:35.211Z,37.42
2023-03-04T18:48:05.281Z,35.20
2023-03-04T18:50:35.280Z,34.60
2023-03-04T18:53:05.204Z,33.54
2023-03-04T18:55:35.285Z,33.56
2023-03-04T18:58:07.818Z,33.39
2023-03-04T19:00:37.711Z,34.73
2023-03-04T19:03:12.132Z,35.06
2023-03-04T19:05:42.976Z,33.07
2023-03-04T19:08:12.997Z,33.22
2023-03-04T19:10:42.951Z,33.59
2023-03-04T19:13:18.485Z,33.86
2023-03-04T19:15:48.478Z,34.00
2023-03-04T19:18:18.546Z,34.22
2023-03-04T19:20:48.498Z,35.05
2023-03-04T19:23:19.716Z,35.55
2023-03-04T19:25:50.046Z,33.94
2023-03-04T19:28:24.271Z,34.77
2023-03-04T19:30:58.973Z,34.53
2023-03-04T19:33:29.196Z,35.76
2023-03-04T19:35:59.100Z,35.72
2023-03-04T19:38:29.185Z,36.25
2023-03-04T19:40:59.126Z,34.14
2023-03-04T19:43:36.836Z,33.99
2023-03-04T19:46:07.411Z,36.57
2023-03-04T19:48:39.293Z,35.92
2023-03-04T19:51:18.649Z,33.74
2023-03-04T19:53:50.754Z,32.98
2023-03-04T19:56:21.379Z,33.41
2023-03-04T19:58:56.250Z,33.76
2023-03-04T20:01:29.285Z,33.10
2023-03-04T20:04:01.298Z,34.40
2023-03-04T20:06:31.937Z,32.90
2023-03-04T20:09:03.343Z,33.05
2023-03-04T20:11:35.927Z,33.21
2023-03-04T20:14:11.818Z,32.95
2023-03-04T20:16:41.808Z,33.45
2023-03-04T20:19:11.918Z,32.72
2023-03-04T20:21:41.915Z,31.68
2023-03-04T20:24:11.944Z,32.60
2023-03-04T20:26:42.183Z,33.09
2023-03-04T20:29:14.720Z,33.62
2023-03-04T20:31:45.013Z,33.48
2023-03-04T20:34:15.735Z,35.55
2023-03-04T20:36:45.752Z,33.81
2023-03-04T20:39:28.211Z,33.16
2023-03-04T20:41:58.920Z,32.68
2023-03-04T20:44:31.680Z,35.32
2023-03-04T20:47:01.832Z,34.16
2023-03-04T20:49:32.523Z,34.39
2023-03-04T20:52:06.602Z,33.60
2023-03-04T20:54:38.569Z,32.75
2023-03-04T20:57:10.768Z,34.19
2023-03-04T20:59:44.080Z,33.56
2023-03-04T21:02:19.804Z,34.90
2023-03-04T21:04:49.955Z,33.32
2023-03-04T21:07:20.050Z,34.65
2023-03-04T21:09:50.071Z,35.57
2023-03-04T21:12:20.076Z,33.53
2023-03-04T21:14:52.683Z,34.61
2023-03-04T21:17:24.518Z,34.94
2023-03-04T21:19:54.496Z,35.19
2023-03-04T21:22:24.380Z,33.50
2023-03-04T21:24:54.317Z,33.89
2023-03-04T21:27:24.287Z,35.26
2023-03-04T21:29:56.830Z,32.80
2023-03-04T21:32:29.621Z,32.26
2023-03-04T21:34:59.585Z,33.52
2023-03-04T21:37:29.952Z,34.15
2023-03-04T21:40:01.569Z,33.97
2023-03-04T21:42:31.645Z,33.81
2023-03-04T21:45:04.255Z,33.03
2023-03-04T21:47:34.364Z,32.94
2023-03-04T21:50:04.406Z,32.89
2023-03-04T21:52:34.410Z,34.00
2023-03-04T21:55:04.310Z,32.44
2023-03-04T21:57:35.200Z,32.34
2023-03-04T22:00:09.487Z,32.39
2023-03-04T22:02:42.478Z,31.57
2023-03-04T22:05:12.709Z,32.29
2023-03-04T22:07:42.694Z,31.48
2023-03-04T22:10:14.105Z,32.54
2023-03-04T22:12:43.985Z,31.27
2023-03-04T22:15:16.937Z,30.94
2023-03-04T22:17:47.106Z,30.81
2023-03-04T22:20:17.612Z,29.87
2023-03-04T22:22:47.585Z,30.05
2023-03-04T22:25:17.749Z,30.36
2023-03-04T22:27:50.650Z,31.21
2023-03-04T22:30:23.681Z,30.47
2023-03-04T22:32:56.831Z,31.03
2023-03-04T22:35:27.131Z,30.55
2023-03-04T22:37:57.376Z,30.33
2023-03-04T22:40:27.920Z,30.28
2023-03-04T22:42:58.095Z,30.58
2023-03-04T22:45:34.027Z,31.05
2023-03-04T22:48:04.181Z,32.31
2023-03-04T22:50:34.158Z,31.85
2023-03-04T22:53:06.760Z,31.64
2023-03-04T22:55:38.029Z,31.54
2023-03-04T22:58:07.970Z,33.07
2023-03-04T23:00:40.791Z,31.28
2023-03-04T23:03:10.711Z,32.49
2023-03-04T23:05:40.642Z,33.36
2023-03-04T23:08:10.609Z,32.75
2023-03-04T23:10:40.596Z,32.78
2023-03-04T23:13:10.574Z,34.20
2023-03-04T23:15:43.168Z,33.08
2023-03-04T23:18:13.080Z,33.92
2023-03-04T23:20:44.179Z,33.92
2023-03-04T23:23:14.391Z,33.96
2023-03-04T23:25:46.252Z,34.14
2023-03-04T23:28:16.161Z,34.60
2023-03-04T23:30:48.701Z,33.65
2023-03-04T23:33:18.573Z,35.69
2023-03-04T23:35:48.503Z,33.99
2023-03-04T23:38:18.391Z,34.45
2023-03-04T23:40:48.270Z,35.15
2023-03-04T23:43:18.168Z,35.80
2023-03-04T23:45:50.743Z,37.28
2023-03-04T23:48:20.740Z,37.91
2023-03-04T23:50:54.334Z,35.49
2023-03-04T23:53:24.422Z,35.38
2023-03-04T23:55:54.254Z,35.28
2023-03-04T23:58:24.236Z,34.76
